Aviation Digital Data Service (ADDS)

Output produced by METARs form (0522 UTC 16 February 2019)
found at http://www.aviationweather.gov/metar/data/
 
METAR text: EKYT 160450Z AUTO 22011KT 9999 NCD 05/02 Q1017
Conditions at: EKYT (ALBORG , DK) observed 0450 UTC 16 February 2019
Temperature: 5.0°C (41°F)
Dewpoint: 2.0°C (36°F) [RH = 81%]
Pressure (altimeter): 30.03 inches Hg (1017.0 mb)
Winds: from the SW (220 degrees) at 13 MPH (11 knots; 5.7 m/s)
Visibility: 6 or more miles (10+ km)
Ceiling: at least 12,000 feet AGL
Clouds: sky clear below 12,000 feet AGL
Weather: no significant weather observed at this time

METAR text: EKYT 160420Z AUTO 22012KT 9999 NCD 05/01 Q1018
Conditions at: EKYT (ALBORG , DK) observed 0420 UTC 16 February 2019
Temperature: 5.0°C (41°F)
Dewpoint: 1.0°C (34°F) [RH = 75%]
Pressure (altimeter): 30.06 inches Hg (1018.0 mb)
Winds: from the SW (220 degrees) at 14 MPH (12 knots; 6.2 m/s)
Visibility: 6 or more miles (10+ km)
Ceiling: at least 12,000 feet AGL
Clouds: sky clear below 12,000 feet AGL
Weather: no significant weather observed at this time

METAR text: EKYT 160350Z AUTO 21010KT 9999 NCD 05/01 Q1018
Conditions at: EKYT (ALBORG , DK) observed 0350 UTC 16 February 2019
Temperature: 5.0°C (41°F)
Dewpoint: 1.0°C (34°F) [RH = 75%]
Pressure (altimeter): 30.06 inches Hg (1018.0 mb)
Winds: from the SSW (210 degrees) at 12 MPH (10 knots; 5.1 m/s)
Visibility: 6 or more miles (10+ km)
Ceiling: at least 12,000 feet AGL
Clouds: sky clear below 12,000 feet AGL
Weather: no significant weather observed at this time

METAR text: EKYT 160320Z AUTO 21009KT 9999 NCD 04/01 Q1018
Conditions at: EKYT (ALBORG , DK) observed 0320 UTC 16 February 2019
Temperature: 4.0°C (39°F)
Dewpoint: 1.0°C (34°F) [RH = 81%]
Pressure (altimeter): 30.06 inches Hg (1018.0 mb)
Winds: from the SSW (210 degrees) at 10 MPH (9 knots; 4.6 m/s)
Visibility: 6 or more miles (10+ km)
Ceiling: at least 12,000 feet AGL
Clouds: sky clear below 12,000 feet AGL
Weather: no significant weather observed at this time

METAR text: EKYT 160250Z AUTO 22007KT 9999 NCD 04/01 Q1019
Conditions at: EKYT (ALBORG , DK) observed 0250 UTC 16 February 2019
Temperature: 4.0°C (39°F)
Dewpoint: 1.0°C (34°F) [RH = 81%]
Pressure (altimeter): 30.09 inches Hg (1019.0 mb)
Winds: from the SW (220 degrees) at 8 MPH (7 knots; 3.6 m/s)
Visibility: 6 or more miles (10+ km)
Ceiling: at least 12,000 feet AGL
Clouds: sky clear below 12,000 feet AGL
Weather: no significant weather observed at this time

METAR text: EKYT 160220Z AUTO 23006KT 9999 NCD 03/01 Q1019
Conditions at: EKYT (ALBORG , DK) observed 0220 UTC 16 February 2019
Temperature: 3.0°C (37°F)
Dewpoint: 1.0°C (34°F) [RH = 87%]
Pressure (altimeter): 30.09 inches Hg (1019.0 mb)
Winds: from the SW (230 degrees) at 7 MPH (6 knots; 3.1 m/s)
Visibility: 6 or more miles (10+ km)
Ceiling: at least 12,000 feet AGL
Clouds: sky clear below 12,000 feet AGL
Weather: no significant weather observed at this time

METAR text: EKYT 160150Z AUTO 23007KT 9999 NCD 03/00 Q1020
Conditions at: EKYT (ALBORG , DK) observed 0150 UTC 16 February 2019
Temperature: 3.0°C (37°F)
Dewpoint: 0.0°C (32°F) [RH = 81%]
Pressure (altimeter): 30.12 inches Hg (1020.0 mb)
Winds: from the SW (230 degrees) at 8 MPH (7 knots; 3.6 m/s)
Visibility: 6 or more miles (10+ km)
Ceiling: at least 12,000 feet AGL
Clouds: sky clear below 12,000 feet AGL
Weather: no significant weather observed at this time

METAR text: EKYT 160120Z AUTO 23008KT 9999 NCD 04/00 Q1020
Conditions at: EKYT (ALBORG , DK) observed 0120 UTC 16 February 2019
Temperature: 4.0°C (39°F)
Dewpoint: 0.0°C (32°F) [RH = 75%]
Pressure (altimeter): 30.12 inches Hg (1020.0 mb)
Winds: from the SW (230 degrees) at 9 MPH (8 knots; 4.1 m/s)
Visibility: 6 or more miles (10+ km)
Ceiling: at least 12,000 feet AGL
Clouds: sky clear below 12,000 feet AGL
Weather: no significant weather observed at this time

METAR text: EKYT 160050Z AUTO 21011KT 9999 NCD 04/00 Q1021
Conditions at: EKYT (ALBORG , DK) observed 0050 UTC 16 February 2019
Temperature: 4.0°C (39°F)
Dewpoint: 0.0°C (32°F) [RH = 75%]
Pressure (altimeter): 30.15 inches Hg (1021.0 mb)
Winds: from the SSW (210 degrees) at 13 MPH (11 knots; 5.7 m/s)
Visibility: 6 or more miles (10+ km)
Ceiling: at least 12,000 feet AGL
Clouds: sky clear below 12,000 feet AGL
Weather: no significant weather observed at this time

METAR text: EKYT 160020Z AUTO 21010KT 9999 NCD 05/00 Q1021
Conditions at: EKYT (ALBORG , DK) observed 0020 UTC 16 February 2019
Temperature: 5.0°C (41°F)
Dewpoint: 0.0°C (32°F) [RH = 70%]
Pressure (altimeter): 30.15 inches Hg (1021.0 mb)
Winds: from the SSW (210 degrees) at 12 MPH (10 knots; 5.1 m/s)
Visibility: 6 or more miles (10+ km)
Ceiling: at least 12,000 feet AGL
Clouds: sky clear below 12,000 feet AGL
Weather: no significant weather observed at this time

METAR text: EKYT 152350Z AUTO 21009KT 9999 NCD 04/M00 Q1021
Conditions at: EKYT (ALBORG , DK) observed 2350 UTC 15 February 2019
Temperature: 4.0°C (39°F)
Dewpoint: 0.0°C (32°F) [RH = 75%]
Pressure (altimeter): 30.15 inches Hg (1021.0 mb)
Winds: from the SSW (210 degrees) at 10 MPH (9 knots; 4.6 m/s)
Visibility: 6 or more miles (10+ km)
Ceiling: at least 12,000 feet AGL
Clouds: sky clear below 12,000 feet AGL
Weather: no significant weather observed at this time

METAR text: EKYT 152320Z AUTO 20008KT 9999 NCD 04/M00 Q1022
Conditions at: EKYT (ALBORG , DK) observed 2320 UTC 15 February 2019
Temperature: 4.0°C (39°F)
Dewpoint: 0.0°C (32°F) [RH = 75%]
Pressure (altimeter): 30.18 inches Hg (1022.0 mb)
Winds: from the SSW (200 degrees) at 9 MPH (8 knots; 4.1 m/s)
Visibility: 6 or more miles (10+ km)
Ceiling: at least 12,000 feet AGL
Clouds: sky clear below 12,000 feet AGL
Weather: no significant weather observed at this time

METAR text: EKYT 152250Z AUTO 20006KT 9999 NCD 04/M01 Q1022
Conditions at: EKYT (ALBORG , DK) observed 2250 UTC 15 February 2019
Temperature: 4.0°C (39°F)
Dewpoint: -1.0°C (30°F) [RH = 70%]
Pressure (altimeter): 30.18 inches Hg (1022.0 mb)
Winds: from the SSW (200 degrees) at 7 MPH (6 knots; 3.1 m/s)
Visibility: 6 or more miles (10+ km)
Ceiling: at least 12,000 feet AGL
Clouds: sky clear below 12,000 feet AGL
Weather: no significant weather observed at this time

METAR text: EKYT 152220Z AUTO 21007KT 9999 NCD 04/M01 Q1022
Conditions at: EKYT (ALBORG , DK) observed 2220 UTC 15 February 2019
Temperature: 4.0°C (39°F)
Dewpoint: -1.0°C (30°F) [RH = 70%]
Pressure (altimeter): 30.18 inches Hg (1022.0 mb)
Winds: from the SSW (210 degrees) at 8 MPH (7 knots; 3.6 m/s)
Visibility: 6 or more miles (10+ km)
Ceiling: at least 12,000 feet AGL
Clouds: sky clear below 12,000 feet AGL
Weather: no significant weather observed at this time

METAR text: EKYT 152150Z AUTO 24005KT 9999 NCD 05/M00 Q1022
Conditions at: EKYT (ALBORG , DK) observed 2150 UTC 15 February 2019
Temperature: 5.0°C (41°F)
Dewpoint: 0.0°C (32°F) [RH = 70%]
Pressure (altimeter): 30.18 inches Hg (1022.0 mb)
Winds: from the WSW (240 degrees) at 6 MPH (5 knots; 2.6 m/s)
Visibility: 6 or more miles (10+ km)
Ceiling: at least 12,000 feet AGL
Clouds: sky clear below 12,000 feet AGL
Weather: no significant weather observed at this time

METAR text: EKYT 152120Z AUTO 22009KT 9999 NCD 05/M00 Q1023
Conditions at: EKYT (ALBORG , DK) observed 2120 UTC 15 February 2019
Temperature: 5.0°C (41°F)
Dewpoint: 0.0°C (32°F) [RH = 70%]
Pressure (altimeter): 30.21 inches Hg (1023.0 mb)
Winds: from the SW (220 degrees) at 10 MPH (9 knots; 4.6 m/s)
Visibility: 6 or more miles (10+ km)
Ceiling: at least 12,000 feet AGL
Clouds: sky clear below 12,000 feet AGL
Weather: no significant weather observed at this time

METAR text: EKYT 152050Z AUTO 19008KT 9999 NCD 04/M00 Q1023
Conditions at: EKYT (ALBORG , DK) observed 2050 UTC 15 February 2019
Temperature: 4.0°C (39°F)
Dewpoint: 0.0°C (32°F) [RH = 75%]
Pressure (altimeter): 30.21 inches Hg (1023.0 mb)
Winds: from the S (190 degrees) at 9 MPH (8 knots; 4.1 m/s)
Visibility: 6 or more miles (10+ km)
Ceiling: at least 12,000 feet AGL
Clouds: sky clear below 12,000 feet AGL
Weather: no significant weather observed at this time

METAR text: EKYT 152020Z AUTO 20006KT 9999 NCD 05/00 Q1023
Conditions at: EKYT (ALBORG , DK) observed 2020 UTC 15 February 2019
Temperature: 5.0°C (41°F)
Dewpoint: 0.0°C (32°F) [RH = 70%]
Pressure (altimeter): 30.21 inches Hg (1023.0 mb)
Winds: from the SSW (200 degrees) at 7 MPH (6 knots; 3.1 m/s)
Visibility: 6 or more miles (10+ km)
Ceiling: at least 12,000 feet AGL
Clouds: sky clear below 12,000 feet AGL
Weather: no significant weather observed at this time

METAR text: EKYT 151950Z AUTO 23005KT 9999 NCD 05/00 Q1024
Conditions at: EKYT (ALBORG , DK) observed 1950 UTC 15 February 2019
Temperature: 5.0°C (41°F)
Dewpoint: 0.0°C (32°F) [RH = 70%]
Pressure (altimeter): 30.24 inches Hg (1024.0 mb)
Winds: from the SW (230 degrees) at 6 MPH (5 knots; 2.6 m/s)
Visibility: 6 or more miles (10+ km)
Ceiling: at least 12,000 feet AGL
Clouds: sky clear below 12,000 feet AGL
Weather: no significant weather observed at this time

METAR text: EKYT 151920Z AUTO 19009KT 9999 NCD 05/00 Q1024
Conditions at: EKYT (ALBORG , DK) observed 1920 UTC 15 February 2019
Temperature: 5.0°C (41°F)
Dewpoint: 0.0°C (32°F) [RH = 70%]
Pressure (altimeter): 30.24 inches Hg (1024.0 mb)
Winds: from the S (190 degrees) at 10 MPH (9 knots; 4.6 m/s)
Visibility: 6 or more miles (10+ km)
Ceiling: at least 12,000 feet AGL
Clouds: sky clear below 12,000 feet AGL
Weather: no significant weather observed at this time

METAR text: EKYT 151850Z AUTO 19005KT 9999 NCD 05/01 Q1024
Conditions at: EKYT (ALBORG , DK) observed 1850 UTC 15 February 2019
Temperature: 5.0°C (41°F)
Dewpoint: 1.0°C (34°F) [RH = 75%]
Pressure (altimeter): 30.24 inches Hg (1024.0 mb)
Winds: from the S (190 degrees) at 6 MPH (5 knots; 2.6 m/s)
Visibility: 6 or more miles (10+ km)
Ceiling: at least 12,000 feet AGL
Clouds: sky clear below 12,000 feet AGL
Weather: no significant weather observed at this time

METAR text: EKYT 151820Z AUTO 20006KT 9999 NCD 05/01 Q1024
Conditions at: EKYT (ALBORG , DK) observed 1820 UTC 15 February 2019
Temperature: 5.0°C (41°F)
Dewpoint: 1.0°C (34°F) [RH = 75%]
Pressure (altimeter): 30.24 inches Hg (1024.0 mb)
Winds: from the SSW (200 degrees) at 7 MPH (6 knots; 3.1 m/s)
Visibility: 6 or more miles (10+ km)
Ceiling: at least 12,000 feet AGL
Clouds: sky clear below 12,000 feet AGL
Weather: no significant weather observed at this time

METAR text: EKYT 151750Z AUTO 19007KT 9999 NCD 06/02 Q1025
Conditions at: EKYT (ALBORG , DK) observed 1750 UTC 15 February 2019
Temperature: 6.0°C (43°F)
Dewpoint: 2.0°C (36°F) [RH = 75%]
Pressure (altimeter): 30.27 inches Hg (1025.0 mb)
Winds: from the S (190 degrees) at 8 MPH (7 knots; 3.6 m/s)
Visibility: 6 or more miles (10+ km)
Ceiling: at least 12,000 feet AGL
Clouds: sky clear below 12,000 feet AGL
Weather: no significant weather observed at this time

METAR text: EKYT 151720Z AUTO 20007KT 9999 NCD 06/03 Q1025
Conditions at: EKYT (ALBORG , DK) observed 1720 UTC 15 February 2019
Temperature: 6.0°C (43°F)
Dewpoint: 3.0°C (37°F) [RH = 81%]
Pressure (altimeter): 30.27 inches Hg (1025.0 mb)
Winds: from the SSW (200 degrees) at 8 MPH (7 knots; 3.6 m/s)
Visibility: 6 or more miles (10+ km)
Ceiling: at least 12,000 feet AGL
Clouds: sky clear below 12,000 feet AGL
Weather: no significant weather observed at this time

METAR text: EKYT 151650Z AUTO 20007KT 9999 NCD 06/03 Q1025
Conditions at: EKYT (ALBORG , DK) observed 1650 UTC 15 February 2019
Temperature: 6.0°C (43°F)
Dewpoint: 3.0°C (37°F) [RH = 81%]
Pressure (altimeter): 30.27 inches Hg (1025.0 mb)
Winds: from the SSW (200 degrees) at 8 MPH (7 knots; 3.6 m/s)
Visibility: 6 or more miles (10+ km)
Ceiling: at least 12,000 feet AGL
Clouds: sky clear below 12,000 feet AGL
Weather: no significant weather observed at this time

METAR text: EKYT 151620Z AUTO 19008KT 9999 NCD 07/03 Q1025
Conditions at: EKYT (ALBORG , DK) observed 1620 UTC 15 February 2019
Temperature: 7.0°C (45°F)
Dewpoint: 3.0°C (37°F) [RH = 76%]
Pressure (altimeter): 30.27 inches Hg (1025.0 mb)
Winds: from the S (190 degrees) at 9 MPH (8 knots; 4.1 m/s)
Visibility: 6 or more miles (10+ km)
Ceiling: at least 12,000 feet AGL
Clouds: sky clear below 12,000 feet AGL
Weather: no significant weather observed at this time

METAR text: EKYT 151550Z AUTO 21007KT 9999 NCD 09/04 Q1026
Conditions at: EKYT (ALBORG , DK) observed 1550 UTC 15 February 2019
Temperature: 9.0°C (48°F)
Dewpoint: 4.0°C (39°F) [RH = 71%]
Pressure (altimeter): 30.30 inches Hg (1026.0 mb)
Winds: from the SSW (210 degrees) at 8 MPH (7 knots; 3.6 m/s)
Visibility: 6 or more miles (10+ km)
Ceiling: at least 12,000 feet AGL
Clouds: sky clear below 12,000 feet AGL
Weather: no significant weather observed at this time

METAR text: EKYT 151520Z AUTO 21008KT 9999 NCD 10/05 Q1026
Conditions at: EKYT (ALBORG , DK) observed 1520 UTC 15 February 2019
Temperature: 10.0°C (50°F)
Dewpoint: 5.0°C (41°F) [RH = 71%]
Pressure (altimeter): 30.30 inches Hg (1026.0 mb)
Winds: from the SSW (210 degrees) at 9 MPH (8 knots; 4.1 m/s)
Visibility: 6 or more miles (10+ km)
Ceiling: at least 12,000 feet AGL
Clouds: sky clear below 12,000 feet AGL
Weather: no significant weather observed at this time

METAR text: EKYT 151450Z AUTO 24008KT 9999 NCD 09/05 Q1026
Conditions at: EKYT (ALBORG , DK) observed 1450 UTC 15 February 2019
Temperature: 9.0°C (48°F)
Dewpoint: 5.0°C (41°F) [RH = 76%]
Pressure (altimeter): 30.30 inches Hg (1026.0 mb)
Winds: from the WSW (240 degrees) at 9 MPH (8 knots; 4.1 m/s)
Visibility: 6 or more miles (10+ km)
Ceiling: at least 12,000 feet AGL
Clouds: sky clear below 12,000 feet AGL
Weather: no significant weather observed at this time

METAR text: EKYT 151420Z AUTO 23007KT 9999 FEW220/// 10/05 Q1026
Conditions at: EKYT (ALBORG , DK) observed 1420 UTC 15 February 2019
Temperature: 10.0°C (50°F)
Dewpoint: 5.0°C (41°F) [RH = 71%]
Pressure (altimeter): 30.30 inches Hg (1026.0 mb)
Winds: from the SW (230 degrees) at 8 MPH (7 knots; 3.6 m/s)
Visibility: 6 or more miles (10+ km)
Ceiling: at least 12,000 feet AGL
Clouds: few clouds at 22000 feet AGL
Weather: no significant weather observed at this time

METAR text: EKYT 151350Z AUTO 23008KT 9999 NCD 10/05 Q1027
Conditions at: EKYT (ALBORG , DK) observed 1350 UTC 15 February 2019
Temperature: 10.0°C (50°F)
Dewpoint: 5.0°C (41°F) [RH = 71%]
Pressure (altimeter): 30.32 inches Hg (1027.0 mb)
Winds: from the SW (230 degrees) at 9 MPH (8 knots; 4.1 m/s)
Visibility: 6 or more miles (10+ km)
Ceiling: at least 12,000 feet AGL
Clouds: sky clear below 12,000 feet AGL
Weather: no significant weather observed at this time

METAR text: EKYT 151320Z AUTO 23009KT 9999 NCD 09/05 Q1027
Conditions at: EKYT (ALBORG , DK) observed 1320 UTC 15 February 2019
Temperature: 9.0°C (48°F)
Dewpoint: 5.0°C (41°F) [RH = 76%]
Pressure (altimeter): 30.32 inches Hg (1027.0 mb)
Winds: from the SW (230 degrees) at 10 MPH (9 knots; 4.6 m/s)
Visibility: 6 or more miles (10+ km)
Ceiling: at least 12,000 feet AGL
Clouds: sky clear below 12,000 feet AGL
Weather: no significant weather observed at this time

METAR text: EKYT 151250Z AUTO 24007KT 9999 NCD 09/04 Q1027
Conditions at: EKYT (ALBORG , DK) observed 1250 UTC 15 February 2019
Temperature: 9.0°C (48°F)
Dewpoint: 4.0°C (39°F) [RH = 71%]
Pressure (altimeter): 30.32 inches Hg (1027.0 mb)
Winds: from the WSW (240 degrees) at 8 MPH (7 knots; 3.6 m/s)
Visibility: 6 or more miles (10+ km)
Ceiling: at least 12,000 feet AGL
Clouds: sky clear below 12,000 feet AGL
Weather: no significant weather observed at this time

METAR text: EKYT 151220Z AUTO 23007KT 9999 NCD 09/04 Q1028
Conditions at: EKYT (ALBORG , DK) observed 1220 UTC 15 February 2019
Temperature: 9.0°C (48°F)
Dewpoint: 4.0°C (39°F) [RH = 71%]
Pressure (altimeter): 30.35 inches Hg (1028.0 mb)
Winds: from the SW (230 degrees) at 8 MPH (7 knots; 3.6 m/s)
Visibility: 6 or more miles (10+ km)
Ceiling: at least 12,000 feet AGL
Clouds: sky clear below 12,000 feet AGL
Weather: no significant weather observed at this time

METAR text: EKYT 151150Z AUTO 24007KT 9999 NCD 08/04 Q1028
Conditions at: EKYT (ALBORG , DK) observed 1150 UTC 15 February 2019
Temperature: 8.0°C (46°F)
Dewpoint: 4.0°C (39°F) [RH = 76%]
Pressure (altimeter): 30.35 inches Hg (1028.0 mb)
Winds: from the WSW (240 degrees) at 8 MPH (7 knots; 3.6 m/s)
Visibility: 6 or more miles (10+ km)
Ceiling: at least 12,000 feet AGL
Clouds: sky clear below 12,000 feet AGL
Weather: no significant weather observed at this time

METAR text: EKYT 151120Z AUTO 24008KT 9999 FEW160/// 07/04 Q1028
Conditions at: EKYT (ALBORG , DK) observed 1120 UTC 15 February 2019
Temperature: 7.0°C (45°F)
Dewpoint: 4.0°C (39°F) [RH = 81%]
Pressure (altimeter): 30.35 inches Hg (1028.0 mb)
Winds: from the WSW (240 degrees) at 9 MPH (8 knots; 4.1 m/s)
Visibility: 6 or more miles (10+ km)
Ceiling: at least 12,000 feet AGL
Clouds: few clouds at 16000 feet AGL
Weather: no significant weather observed at this time

METAR text: EKYT 151050Z AUTO 23011KT 9999 NCD 06/04 Q1028
Conditions at: EKYT (ALBORG , DK) observed 1050 UTC 15 February 2019
Temperature: 6.0°C (43°F)
Dewpoint: 4.0°C (39°F) [RH = 87%]
Pressure (altimeter): 30.35 inches Hg (1028.0 mb)
Winds: from the SW (230 degrees) at 13 MPH (11 knots; 5.7 m/s)
Visibility: 6 or more miles (10+ km)
Ceiling: at least 12,000 feet AGL
Clouds: sky clear below 12,000 feet AGL
Weather: no significant weather observed at this time

METAR text: EKYT 151020Z AUTO 23008KT 9999 NCD 06/04 Q1029
Conditions at: EKYT (ALBORG , DK) observed 1020 UTC 15 February 2019
Temperature: 6.0°C (43°F)
Dewpoint: 4.0°C (39°F) [RH = 87%]
Pressure (altimeter): 30.38 inches Hg (1029.0 mb)
Winds: from the SW (230 degrees) at 9 MPH (8 knots; 4.1 m/s)
Visibility: 6 or more miles (10+ km)
Ceiling: at least 12,000 feet AGL
Clouds: sky clear below 12,000 feet AGL
Weather: no significant weather observed at this time

METAR text: EKYT 150959Z 23009KT CAVOK 05/04 Q1029
Conditions at: EKYT (ALBORG , DK) observed 0959 UTC 15 February 2019
Temperature: 5.0°C (41°F)
Dewpoint: 4.0°C (39°F) [RH = 93%]
Pressure (altimeter): 30.38 inches Hg (1029.0 mb)
Winds: from the SW (230 degrees) at 10 MPH (9 knots; 4.6 m/s)
Visibility: 6 or more miles (10+ km)
Ceiling: ceiling and visibility are OK
Clouds: unknown
Weather: no significant weather observed at this time

METAR text: EKYT 150920Z 22008KT 8000 NSC 05/04 Q1029
Conditions at: EKYT (ALBORG , DK) observed 0920 UTC 15 February 2019
Temperature: 5.0°C (41°F)
Dewpoint: 4.0°C (39°F) [RH = 93%]
Pressure (altimeter): 30.38 inches Hg (1029.0 mb)
Winds: from the SW (220 degrees) at 9 MPH (8 knots; 4.1 m/s)
Visibility: 5 miles ( 8 km)
Ceiling: at least 12,000 feet AGL
Clouds: sky clear below 12,000 feet AGL
Weather: no significant weather observed at this time

METAR text: EKYT 150850Z 22008KT 5000 BR NSC 04/03 Q1029
Conditions at: EKYT (ALBORG , DK) observed 0850 UTC 15 February 2019
Temperature: 4.0°C (39°F)
Dewpoint: 3.0°C (37°F) [RH = 93%]
Pressure (altimeter): 30.38 inches Hg (1029.0 mb)
Winds: from the SW (220 degrees) at 9 MPH (8 knots; 4.1 m/s)
Visibility: 3 miles ( 5 km)
Ceiling: at least 12,000 feet AGL
Clouds: sky clear below 12,000 feet AGL
Weather: BR  (mist)

METAR text: EKYT 150820Z 21005KT 4300 BR FEW003 03/03 Q1029
Conditions at: EKYT (ALBORG , DK) observed 0820 UTC 15 February 2019
Temperature: 3.0°C (37°F)
Dewpoint: 3.0°C (37°F) [RH = 100%]
Pressure (altimeter): 30.38 inches Hg (1029.0 mb)
Winds: from the SSW (210 degrees) at 6 MPH (5 knots; 2.6 m/s)
Visibility: 2.67 miles (4.30 km)
Ceiling: at least 12,000 feet AGL
Clouds: few clouds at 300 feet AGL
Weather: BR  (mist)

METAR text: EKYT 150750Z 20005KT 3200 BR BKN003 BKN005 03/03 Q1029
Conditions at: EKYT (ALBORG , DK) observed 0750 UTC 15 February 2019
Temperature: 3.0°C (37°F)
Dewpoint: 3.0°C (37°F) [RH = 100%]
Pressure (altimeter): 30.38 inches Hg (1029.0 mb)
Winds: from the SSW (200 degrees) at 6 MPH (5 knots; 2.6 m/s)
Visibility: 1.99 miles (3.20 km)
Ceiling: 300 feet AGL
Clouds: broken clouds at 300 feet AGL
broken clouds at 500 feet AGL
Weather: BR  (mist)

METAR text: EKYT 150720Z 22008KT 2600 BR BKN003 BKN005 03/03 Q1029
Conditions at: EKYT (ALBORG , DK) observed 0720 UTC 15 February 2019
Temperature: 3.0°C (37°F)
Dewpoint: 3.0°C (37°F) [RH = 100%]
Pressure (altimeter): 30.38 inches Hg (1029.0 mb)
Winds: from the SW (220 degrees) at 9 MPH (8 knots; 4.1 m/s)
Visibility: 1.62 miles (2.61 km)
Ceiling: 300 feet AGL
Clouds: broken clouds at 300 feet AGL
broken clouds at 500 feet AGL
Weather: BR  (mist)

METAR text: EKYT 150711Z 22008KT 2600 BR BKN003 BKN005 03/03 Q1029
Conditions at: EKYT (ALBORG , DK) observed 0711 UTC 15 February 2019
Temperature: 3.0°C (37°F)
Dewpoint: 3.0°C (37°F) [RH = 100%]
Pressure (altimeter): 30.38 inches Hg (1029.0 mb)
Winds: from the SW (220 degrees) at 9 MPH (8 knots; 4.1 m/s)
Visibility: 1.62 miles (2.61 km)
Ceiling: 300 feet AGL
Clouds: broken clouds at 300 feet AGL
broken clouds at 500 feet AGL
Weather: BR  (mist)

METAR text: EKYT 150653Z 22007KT 3600 BR BKN003 BKN005 03/03 Q1029
Conditions at: EKYT (ALBORG , DK) observed 0653 UTC 15 February 2019
Temperature: 3.0°C (37°F)
Dewpoint: 3.0°C (37°F) [RH = 100%]
Pressure (altimeter): 30.38 inches Hg (1029.0 mb)
Winds: from the SW (220 degrees) at 8 MPH (7 knots; 3.6 m/s)
Visibility: 2.24 miles (3.60 km)
Ceiling: 300 feet AGL
Clouds: broken clouds at 300 feet AGL
broken clouds at 500 feet AGL
Weather: BR  (mist)

METAR text: EKYT 150620Z 22006KT 4500 BR BKN003 BKN005 03/02 Q1029
Conditions at: EKYT (ALBORG , DK) observed 0620 UTC 15 February 2019
Temperature: 3.0°C (37°F)
Dewpoint: 2.0°C (36°F) [RH = 93%]
Pressure (altimeter): 30.38 inches Hg (1029.0 mb)
Winds: from the SW (220 degrees) at 7 MPH (6 knots; 3.1 m/s)
Visibility: 2.80 miles (4.51 km)
Ceiling: 300 feet AGL
Clouds: broken clouds at 300 feet AGL
broken clouds at 500 feet AGL
Weather: BR  (mist)

METAR text: EKYT 150551Z 22008KT 4000 BR OVC003 03/03 Q1029
Conditions at: EKYT (ALBORG , DK) observed 0551 UTC 15 February 2019
Temperature: 3.0°C (37°F)
Dewpoint: 3.0°C (37°F) [RH = 100%]
Pressure (altimeter): 30.38 inches Hg (1029.0 mb)
Winds: from the SW (220 degrees) at 9 MPH (8 knots; 4.1 m/s)
Visibility: 2.49 miles (4.01 km)
Ceiling: 300 feet AGL
Clouds: overcast cloud deck at 300 feet AGL
Weather: BR  (mist)

METAR text: EKYT 150534Z 23011KT 4800 BR OVC003 03/03 Q1029
Conditions at: EKYT (ALBORG , DK) observed 0534 UTC 15 February 2019
Temperature: 3.0°C (37°F)
Dewpoint: 3.0°C (37°F) [RH = 100%]
Pressure (altimeter): 30.38 inches Hg (1029.0 mb)
Winds: from the SW (230 degrees) at 13 MPH (11 knots; 5.7 m/s)
Visibility: 2.98 miles (4.80 km)
Ceiling: 300 feet AGL
Clouds: overcast cloud deck at 300 feet AGL
Weather: BR  (mist)

METAR text: EKYT 150520Z 24010KT 4800 BR OVC003 03/03 Q1029
Conditions at: EKYT (ALBORG , DK) observed 0520 UTC 15 February 2019
Temperature: 3.0°C (37°F)
Dewpoint: 3.0°C (37°F) [RH = 100%]
Pressure (altimeter): 30.38 inches Hg (1029.0 mb)
Winds: from the WSW (240 degrees) at 12 MPH (10 knots; 5.1 m/s)
Visibility: 2.98 miles (4.80 km)
Ceiling: 300 feet AGL
Clouds: overcast cloud deck at 300 feet AGL
Weather: BR  (mist)

METAR text: EKYT 150450Z AUTO 24009KT 5000 BKN003/// BKN005/// 03/03 Q1029
Conditions at: EKYT (ALBORG , DK) observed 0450 UTC 15 February 2019
Temperature: 3.0°C (37°F)
Dewpoint: 3.0°C (37°F) [RH = 100%]
Pressure (altimeter): 30.38 inches Hg (1029.0 mb)
Winds: from the WSW (240 degrees) at 10 MPH (9 knots; 4.6 m/s)
Visibility: 3 miles ( 5 km)
Ceiling: 300 feet AGL
Clouds: broken clouds at 300 feet AGL
broken clouds at 500 feet AGL
Weather: no significant weather observed at this time

METAR text: EKYT 150438Z AUTO 25009KT 5000 BKN003/// BKN005/// 03/03 Q1029
Conditions at: EKYT (ALBORG , DK) observed 0438 UTC 15 February 2019
Temperature: 3.0°C (37°F)
Dewpoint: 3.0°C (37°F) [RH = 100%]
Pressure (altimeter): 30.38 inches Hg (1029.0 mb)
Winds: from the WSW (250 degrees) at 10 MPH (9 knots; 4.6 m/s)
Visibility: 3 miles ( 5 km)
Ceiling: 300 feet AGL
Clouds: broken clouds at 300 feet AGL
broken clouds at 500 feet AGL
Weather: no significant weather observed at this time

METAR text: EKYT 150437Z AUTO 25009KT 5000 BKN003/// BKN005/// 03/03 Q1029
Conditions at: EKYT (ALBORG , DK) observed 0437 UTC 15 February 2019
Temperature: 3.0°C (37°F)
Dewpoint: 3.0°C (37°F) [RH = 100%]
Pressure (altimeter): 30.38 inches Hg (1029.0 mb)
Winds: from the WSW (250 degrees) at 10 MPH (9 knots; 4.6 m/s)
Visibility: 3 miles ( 5 km)
Ceiling: 300 feet AGL
Clouds: broken clouds at 300 feet AGL
broken clouds at 500 feet AGL
Weather: no significant weather observed at this time

METAR text: EKYT 150420Z AUTO 24010KT 5000 SCT003/// BKN005/// 03/03 Q1029
Conditions at: EKYT (ALBORG , DK) observed 0420 UTC 15 February 2019
Temperature: 3.0°C (37°F)
Dewpoint: 3.0°C (37°F) [RH = 100%]
Pressure (altimeter): 30.38 inches Hg (1029.0 mb)
Winds: from the WSW (240 degrees) at 12 MPH (10 knots; 5.1 m/s)
Visibility: 3 miles ( 5 km)
Ceiling: 500 feet AGL
Clouds: scattered clouds at 300 feet AGL
broken clouds at 500 feet AGL
Weather: no significant weather observed at this time

METAR text: EKYT 150408Z AUTO 25011KT 5000 BKN003/// OVC005/// 03/03 Q1029
Conditions at: EKYT (ALBORG , DK) observed 0408 UTC 15 February 2019
Temperature: 3.0°C (37°F)
Dewpoint: 3.0°C (37°F) [RH = 100%]
Pressure (altimeter): 30.38 inches Hg (1029.0 mb)
Winds: from the WSW (250 degrees) at 13 MPH (11 knots; 5.7 m/s)
Visibility: 3 miles ( 5 km)
Ceiling: 300 feet AGL
Clouds: broken clouds at 300 feet AGL
overcast cloud deck at 500 feet AGL
Weather: no significant weather observed at this time

METAR text: EKYT 150407Z AUTO 25011KT 5000 BKN003/// OVC005/// 03/03 Q1029
Conditions at: EKYT (ALBORG , DK) observed 0407 UTC 15 February 2019
Temperature: 3.0°C (37°F)
Dewpoint: 3.0°C (37°F) [RH = 100%]
Pressure (altimeter): 30.38 inches Hg (1029.0 mb)
Winds: from the WSW (250 degrees) at 13 MPH (11 knots; 5.7 m/s)
Visibility: 3 miles ( 5 km)
Ceiling: 300 feet AGL
Clouds: broken clouds at 300 feet AGL
overcast cloud deck at 500 feet AGL
Weather: no significant weather observed at this time

METAR text: EKYT 150357Z AUTO 24013KT 5000 BKN003/// BKN005/// 03/03 Q1029
Conditions at: EKYT (ALBORG , DK) observed 0357 UTC 15 February 2019
Temperature: 3.0°C (37°F)
Dewpoint: 3.0°C (37°F) [RH = 100%]
Pressure (altimeter): 30.38 inches Hg (1029.0 mb)
Winds: from the WSW (240 degrees) at 15 MPH (13 knots; 6.7 m/s)
Visibility: 3 miles ( 5 km)
Ceiling: 300 feet AGL
Clouds: broken clouds at 300 feet AGL
broken clouds at 500 feet AGL
Weather: no significant weather observed at this time

METAR text: EKYT 150354Z AUTO 25012KT 4900 BR SCT002/// BKN004/// 04/04 Q1029
Conditions at: EKYT (ALBORG , DK) observed 0354 UTC 15 February 2019
Temperature: 4.0°C (39°F)
Dewpoint: 4.0°C (39°F) [RH = 100%]
Pressure (altimeter): 30.38 inches Hg (1029.0 mb)
Winds: from the WSW (250 degrees) at 14 MPH (12 knots; 6.2 m/s)
Visibility: 3 miles ( 5 km)
Ceiling: 400 feet AGL
Clouds: scattered clouds at 200 feet AGL
broken clouds at 400 feet AGL
Weather: BR  (mist)

METAR text: EKYT 150350Z AUTO 25012KT 5000 SCT002/// BKN004/// 04/04 Q1029
Conditions at: EKYT (ALBORG , DK) observed 0350 UTC 15 February 2019
Temperature: 4.0°C (39°F)
Dewpoint: 4.0°C (39°F) [RH = 100%]
Pressure (altimeter): 30.38 inches Hg (1029.0 mb)
Winds: from the WSW (250 degrees) at 14 MPH (12 knots; 6.2 m/s)
Visibility: 3 miles ( 5 km)
Ceiling: 400 feet AGL
Clouds: scattered clouds at 200 feet AGL
broken clouds at 400 feet AGL
Weather: no significant weather observed at this time

METAR text: EKYT 150320Z AUTO 25013KT 4800 BR SCT002/// OVC004/// 04/04 Q1029
Conditions at: EKYT (ALBORG , DK) observed 0320 UTC 15 February 2019
Temperature: 4.0°C (39°F)
Dewpoint: 4.0°C (39°F) [RH = 100%]
Pressure (altimeter): 30.38 inches Hg (1029.0 mb)
Winds: from the WSW (250 degrees) at 15 MPH (13 knots; 6.7 m/s)
Visibility: 2.98 miles (4.80 km)
Ceiling: 400 feet AGL
Clouds: scattered clouds at 200 feet AGL
overcast cloud deck at 400 feet AGL
Weather: BR  (mist)

METAR text: EKYT 150319Z AUTO 25013KT 4900 SCT002/// OVC004/// 04/04 Q1029
Conditions at: EKYT (ALBORG , DK) observed 0319 UTC 15 February 2019
Temperature: 4.0°C (39°F)
Dewpoint: 4.0°C (39°F) [RH = 100%]
Pressure (altimeter): 30.38 inches Hg (1029.0 mb)
Winds: from the WSW (250 degrees) at 15 MPH (13 knots; 6.7 m/s)
Visibility: 3 miles ( 5 km)
Ceiling: 400 feet AGL
Clouds: scattered clouds at 200 feet AGL
overcast cloud deck at 400 feet AGL
Weather: no significant weather observed at this time

METAR text: EKYT 150255Z AUTO 24011KT 2900 BR BKN001/// OVC003/// 04/04 Q1029
Conditions at: EKYT (ALBORG , DK) observed 0255 UTC 15 February 2019
Temperature: 4.0°C (39°F)
Dewpoint: 4.0°C (39°F) [RH = 100%]
Pressure (altimeter): 30.38 inches Hg (1029.0 mb)
Winds: from the WSW (240 degrees) at 13 MPH (11 knots; 5.7 m/s)
Visibility: 1.80 miles (2.90 km)
Ceiling: 100 feet AGL
Clouds: broken clouds at 100 feet AGL
overcast cloud deck at 300 feet AGL
Weather: BR  (mist)

METAR text: EKYT 150250Z AUTO 24010KT 3100 BR BKN001/// 04/04 Q1029
Conditions at: EKYT (ALBORG , DK) observed 0250 UTC 15 February 2019
Temperature: 4.0°C (39°F)
Dewpoint: 4.0°C (39°F) [RH = 100%]
Pressure (altimeter): 30.38 inches Hg (1029.0 mb)
Winds: from the WSW (240 degrees) at 12 MPH (10 knots; 5.1 m/s)
Visibility: 1.93 miles (3.11 km)
Ceiling: 100 feet AGL
Clouds: broken clouds at 100 feet AGL
Weather: BR  (mist)

METAR text: EKYT 150238Z AUTO 25011KT 3100 BR BKN001/// BKN003/// 04/04 Q1029
Conditions at: EKYT (ALBORG , DK) observed 0238 UTC 15 February 2019
Temperature: 4.0°C (39°F)
Dewpoint: 4.0°C (39°F) [RH = 100%]
Pressure (altimeter): 30.38 inches Hg (1029.0 mb)
Winds: from the WSW (250 degrees) at 13 MPH (11 knots; 5.7 m/s)
Visibility: 1.93 miles (3.11 km)
Ceiling: 100 feet AGL
Clouds: broken clouds at 100 feet AGL
broken clouds at 300 feet AGL
Weather: BR  (mist)

METAR text: EKYT 150222Z AUTO 25011KT 2900 BR FEW001/// OVC003/// 04/04 Q1029
Conditions at: EKYT (ALBORG , DK) observed 0222 UTC 15 February 2019
Temperature: 4.0°C (39°F)
Dewpoint: 4.0°C (39°F) [RH = 100%]
Pressure (altimeter): 30.38 inches Hg (1029.0 mb)
Winds: from the WSW (250 degrees) at 13 MPH (11 knots; 5.7 m/s)
Visibility: 1.80 miles (2.90 km)
Ceiling: 300 feet AGL
Clouds: few clouds at 100 feet AGL
overcast cloud deck at 300 feet AGL
Weather: BR  (mist)

METAR text: EKYT 150220Z AUTO 25011KT 3500 BR FEW001/// OVC003/// 04/04 Q1030
Conditions at: EKYT (ALBORG , DK) observed 0220 UTC 15 February 2019
Temperature: 4.0°C (39°F)
Dewpoint: 4.0°C (39°F) [RH = 100%]
Pressure (altimeter): 30.41 inches Hg (1030.0 mb)
Winds: from the WSW (250 degrees) at 13 MPH (11 knots; 5.7 m/s)
Visibility: 2.17 miles (3.49 km)
Ceiling: 300 feet AGL
Clouds: few clouds at 100 feet AGL
overcast cloud deck at 300 feet AGL
Weather: BR  (mist)

METAR text: EKYT 150150Z AUTO 25011KT 1100 R08L/P1500U R26R/P1500D BR BKN001/// BKN003/// 04/04 Q1029
Conditions at: EKYT (ALBORG , DK) observed 0150 UTC 15 February 2019
Temperature: 4.0°C (39°F)
Dewpoint: 4.0°C (39°F) [RH = 100%]
Pressure (altimeter): 30.38 inches Hg (1029.0 mb)
Winds: from the WSW (250 degrees) at 13 MPH (11 knots; 5.7 m/s)
Visibility: 0.68 miles (1.09 km)
Ceiling: 100 feet AGL
Clouds: broken clouds at 100 feet AGL
broken clouds at 300 feet AGL
Weather: BR  (mist)

METAR text: EKYT 150148Z AUTO 25011KT 1300 R08L/P1500U R26R/P1500D BR BKN001/// BKN003/// 04/04 Q1030
Conditions at: EKYT (ALBORG , DK) observed 0148 UTC 15 February 2019
Temperature: 4.0°C (39°F)
Dewpoint: 4.0°C (39°F) [RH = 100%]
Pressure (altimeter): 30.41 inches Hg (1030.0 mb)
Winds: from the WSW (250 degrees) at 13 MPH (11 knots; 5.7 m/s)
Visibility: 0.81 miles (1.30 km)
Ceiling: 100 feet AGL
Clouds: broken clouds at 100 feet AGL
broken clouds at 300 feet AGL
Weather: BR  (mist)

METAR text: EKYT 150147Z AUTO 25011KT 1400 R08L/P1500U R26R/P1500N BR SCT001/// BKN003/// 04/04 Q1030
Conditions at: EKYT (ALBORG , DK) observed 0147 UTC 15 February 2019
Temperature: 4.0°C (39°F)
Dewpoint: 4.0°C (39°F) [RH = 100%]
Pressure (altimeter): 30.41 inches Hg (1030.0 mb)
Winds: from the WSW (250 degrees) at 13 MPH (11 knots; 5.7 m/s)
Visibility: 0.87 miles (1.40 km)
Ceiling: 300 feet AGL
Clouds: scattered clouds at 100 feet AGL
broken clouds at 300 feet AGL
Weather: BR  (mist)

METAR text: EKYT 150146Z AUTO 25011KT 1400 R08L/P1500U R26R/P1500N BR SCT001/// BKN003/// 04/04 Q1030
Conditions at: EKYT (ALBORG , DK) observed 0146 UTC 15 February 2019
Temperature: 4.0°C (39°F)
Dewpoint: 4.0°C (39°F) [RH = 100%]
Pressure (altimeter): 30.41 inches Hg (1030.0 mb)
Winds: from the WSW (250 degrees) at 13 MPH (11 knots; 5.7 m/s)
Visibility: 0.87 miles (1.40 km)
Ceiling: 300 feet AGL
Clouds: scattered clouds at 100 feet AGL
broken clouds at 300 feet AGL
Weather: BR  (mist)

METAR text: EKYT 150132Z AUTO 24012KT 1800 BR OVC002/// 04/04 Q1030
Conditions at: EKYT (ALBORG , DK) observed 0132 UTC 15 February 2019
Temperature: 4.0°C (39°F)
Dewpoint: 4.0°C (39°F) [RH = 100%]
Pressure (altimeter): 30.41 inches Hg (1030.0 mb)
Winds: from the WSW (240 degrees) at 14 MPH (12 knots; 6.2 m/s)
Visibility: 1.12 miles (1.80 km)
Ceiling: 200 feet AGL
Clouds: overcast cloud deck at 200 feet AGL
Weather: BR  (mist)

METAR text: EKYT 150131Z AUTO 24012KT 1900 BR OVC002/// 04/04 Q1030
Conditions at: EKYT (ALBORG , DK) observed 0131 UTC 15 February 2019
Temperature: 4.0°C (39°F)
Dewpoint: 4.0°C (39°F) [RH = 100%]
Pressure (altimeter): 30.41 inches Hg (1030.0 mb)
Winds: from the WSW (240 degrees) at 14 MPH (12 knots; 6.2 m/s)
Visibility: 1.18 miles (1.90 km)
Ceiling: 200 feet AGL
Clouds: overcast cloud deck at 200 feet AGL
Weather: BR  (mist)

METAR text: EKYT 150120Z AUTO 24011KT 2800 BR BKN002/// OVC004/// 04/04 Q1030
Conditions at: EKYT (ALBORG , DK) observed 0120 UTC 15 February 2019
Temperature: 4.0°C (39°F)
Dewpoint: 4.0°C (39°F) [RH = 100%]
Pressure (altimeter): 30.41 inches Hg (1030.0 mb)
Winds: from the WSW (240 degrees) at 13 MPH (11 knots; 5.7 m/s)
Visibility: 1.74 miles (2.80 km)
Ceiling: 200 feet AGL
Clouds: broken clouds at 200 feet AGL
overcast cloud deck at 400 feet AGL
Weather: BR  (mist)

METAR text: EKYT 150100Z AUTO 24012KT 2900 BR BKN002/// OVC004/// 04/04 Q1030
Conditions at: EKYT (ALBORG , DK) observed 0100 UTC 15 February 2019
Temperature: 4.0°C (39°F)
Dewpoint: 4.0°C (39°F) [RH = 100%]
Pressure (altimeter): 30.41 inches Hg (1030.0 mb)
Winds: from the WSW (240 degrees) at 14 MPH (12 knots; 6.2 m/s)
Visibility: 1.80 miles (2.90 km)
Ceiling: 200 feet AGL
Clouds: broken clouds at 200 feet AGL
overcast cloud deck at 400 feet AGL
Weather: BR  (mist)

METAR text: EKYT 150059Z AUTO 24012KT 2900 BR BKN002/// OVC004/// 04/04 Q1030
Conditions at: EKYT (ALBORG , DK) observed 0059 UTC 15 February 2019
Temperature: 4.0°C (39°F)
Dewpoint: 4.0°C (39°F) [RH = 100%]
Pressure (altimeter): 30.41 inches Hg (1030.0 mb)
Winds: from the WSW (240 degrees) at 14 MPH (12 knots; 6.2 m/s)
Visibility: 1.80 miles (2.90 km)
Ceiling: 200 feet AGL
Clouds: broken clouds at 200 feet AGL
overcast cloud deck at 400 feet AGL
Weather: BR  (mist)

METAR text: EKYT 150050Z AUTO 24012KT 3500 BR BKN002/// 04/04 Q1030
Conditions at: EKYT (ALBORG , DK) observed 0050 UTC 15 February 2019
Temperature: 4.0°C (39°F)
Dewpoint: 4.0°C (39°F) [RH = 100%]
Pressure (altimeter): 30.41 inches Hg (1030.0 mb)
Winds: from the WSW (240 degrees) at 14 MPH (12 knots; 6.2 m/s)
Visibility: 2.17 miles (3.49 km)
Ceiling: 200 feet AGL
Clouds: broken clouds at 200 feet AGL
Weather: BR  (mist)

METAR text: EKYT 150028Z AUTO 24011KT 2400 BR BKN001/// OVC003/// 04/04 Q1030
Conditions at: EKYT (ALBORG , DK) observed 0028 UTC 15 February 2019
Temperature: 4.0°C (39°F)
Dewpoint: 4.0°C (39°F) [RH = 100%]
Pressure (altimeter): 30.41 inches Hg (1030.0 mb)
Winds: from the WSW (240 degrees) at 13 MPH (11 knots; 5.7 m/s)
Visibility: 1.49 miles (2.40 km)
Ceiling: 100 feet AGL
Clouds: broken clouds at 100 feet AGL
overcast cloud deck at 300 feet AGL
Weather: BR  (mist)

METAR text: EKYT 150023Z AUTO 24010KT 2900 BR SCT001/// OVC003/// 05/05 Q1030
Conditions at: EKYT (ALBORG , DK) observed 0023 UTC 15 February 2019
Temperature: 5.0°C (41°F)
Dewpoint: 5.0°C (41°F) [RH = 100%]
Pressure (altimeter): 30.41 inches Hg (1030.0 mb)
Winds: from the WSW (240 degrees) at 12 MPH (10 knots; 5.1 m/s)
Visibility: 1.80 miles (2.90 km)
Ceiling: 300 feet AGL
Clouds: scattered clouds at 100 feet AGL
overcast cloud deck at 300 feet AGL
Weather: BR  (mist)

METAR text: EKYT 150020Z AUTO 24011KT 3300 BR SCT001/// OVC003/// 05/05 Q1030
Conditions at: EKYT (ALBORG , DK) observed 0020 UTC 15 February 2019
Temperature: 5.0°C (41°F)
Dewpoint: 5.0°C (41°F) [RH = 100%]
Pressure (altimeter): 30.41 inches Hg (1030.0 mb)
Winds: from the WSW (240 degrees) at 13 MPH (11 knots; 5.7 m/s)
Visibility: 2.05 miles (3.30 km)
Ceiling: 300 feet AGL
Clouds: scattered clouds at 100 feet AGL
overcast cloud deck at 300 feet AGL
Weather: BR  (mist)

METAR text: EKYT 142350Z AUTO 24011KT 1500 BR BKN001/// 05/05 Q1029
Conditions at: EKYT (ALBORG , DK) observed 2350 UTC 14 February 2019
Temperature: 5.0°C (41°F)
Dewpoint: 5.0°C (41°F) [RH = 100%]
Pressure (altimeter): 30.38 inches Hg (1029.0 mb)
Winds: from the WSW (240 degrees) at 13 MPH (11 knots; 5.7 m/s)
Visibility: 0.93 miles (1.50 km)
Ceiling: 100 feet AGL
Clouds: broken clouds at 100 feet AGL
Weather: BR  (mist)

METAR text: EKYT 142323Z AUTO 25009KT 0600 R08L/1100U R26R/1200U FG BKN001/// OVC003/// 05/05 Q1029
Conditions at: EKYT (ALBORG , DK) observed 2323 UTC 14 February 2019
Temperature: 5.0°C (41°F)
Dewpoint: 5.0°C (41°F) [RH = 100%]
Pressure (altimeter): 30.38 inches Hg (1029.0 mb)
Winds: from the WSW (250 degrees) at 10 MPH (9 knots; 4.6 m/s)
Visibility: 0.37 miles (0.60 km)
Ceiling: 100 feet AGL
Clouds: broken clouds at 100 feet AGL
overcast cloud deck at 300 feet AGL
Weather: FG  (fog)

METAR text: EKYT 142322Z AUTO 25009KT 0600 R08L/1100U R26R/1200U FG BKN001/// OVC003/// 05/05 Q1029
Conditions at: EKYT (ALBORG , DK) observed 2322 UTC 14 February 2019
Temperature: 5.0°C (41°F)
Dewpoint: 5.0°C (41°F) [RH = 100%]
Pressure (altimeter): 30.38 inches Hg (1029.0 mb)
Winds: from the WSW (250 degrees) at 10 MPH (9 knots; 4.6 m/s)
Visibility: 0.37 miles (0.60 km)
Ceiling: 100 feet AGL
Clouds: broken clouds at 100 feet AGL
overcast cloud deck at 300 feet AGL
Weather: FG  (fog)

METAR text: EKYT 142320Z AUTO 25009KT 0500 R08L/1100N R26R/1100N FG VV002 05/05 Q1029
Conditions at: EKYT (ALBORG , DK) observed 2320 UTC 14 February 2019
Temperature: 5.0°C (41°F)
Dewpoint: 5.0°C (41°F) [RH = 100%]
Pressure (altimeter): 30.38 inches Hg (1029.0 mb)
Winds: from the WSW (250 degrees) at 10 MPH (9 knots; 4.6 m/s)
Visibility: 0.31 miles (0.50 km)
Ceiling: indefinite ceiling with vertical visibility of 200 feet AGL
Clouds: obscured sky
Weather: FG  (fog)

METAR text: EKYT 142305Z AUTO 25010KT 0550 R08L/P1500D R26R/1300D FG BKN001/// OVC003/// 05/05 Q1029
Conditions at: EKYT (ALBORG , DK) observed 2305 UTC 14 February 2019
Temperature: 5.0°C (41°F)
Dewpoint: 5.0°C (41°F) [RH = 100%]
Pressure (altimeter): 30.38 inches Hg (1029.0 mb)
Winds: from the WSW (250 degrees) at 12 MPH (10 knots; 5.1 m/s)
Visibility: 0.34 miles (0.55 km)
Ceiling: 100 feet AGL
Clouds: broken clouds at 100 feet AGL
overcast cloud deck at 300 feet AGL
Weather: FG  (fog)

METAR text: EKYT 142303Z AUTO 25011KT 0650 R08L/P1500D R26R/P1500D FG BKN001/// OVC003/// 04/04 Q1029
Conditions at: EKYT (ALBORG , DK) observed 2303 UTC 14 February 2019
Temperature: 4.0°C (39°F)
Dewpoint: 4.0°C (39°F) [RH = 100%]
Pressure (altimeter): 30.38 inches Hg (1029.0 mb)
Winds: from the WSW (250 degrees) at 13 MPH (11 knots; 5.7 m/s)
Visibility: 0.40 miles (0.64 km)
Ceiling: 100 feet AGL
Clouds: broken clouds at 100 feet AGL
overcast cloud deck at 300 feet AGL
Weather: FG  (fog)

METAR text: EKYT 142302Z AUTO 25011KT 0700 R08L/P1500D R26R/P1500D FG BKN001/// OVC003/// 04/04 Q1029
Conditions at: EKYT (ALBORG , DK) observed 2302 UTC 14 February 2019
Temperature: 4.0°C (39°F)
Dewpoint: 4.0°C (39°F) [RH = 100%]
Pressure (altimeter): 30.38 inches Hg (1029.0 mb)
Winds: from the WSW (250 degrees) at 13 MPH (11 knots; 5.7 m/s)
Visibility: 0.43 miles (0.69 km)
Ceiling: 100 feet AGL
Clouds: broken clouds at 100 feet AGL
overcast cloud deck at 300 feet AGL
Weather: FG  (fog)

METAR text: EKYT 142301Z AUTO 25012KT 0750 R08L/P1500D R26R/P1500D FG VV002 04/04 Q1029
Conditions at: EKYT (ALBORG , DK) observed 2301 UTC 14 February 2019
Temperature: 4.0°C (39°F)
Dewpoint: 4.0°C (39°F) [RH = 100%]
Pressure (altimeter): 30.38 inches Hg (1029.0 mb)
Winds: from the WSW (250 degrees) at 14 MPH (12 knots; 6.2 m/s)
Visibility: 0.47 miles (0.76 km)
Ceiling: indefinite ceiling with vertical visibility of 200 feet AGL
Clouds: obscured sky
Weather: FG  (fog)

METAR text: EKYT 142250Z AUTO 25012KT 0900 R08L/P1500N R26R/P1500D FG VV002 05/05 Q1029
Conditions at: EKYT (ALBORG , DK) observed 2250 UTC 14 February 2019
Temperature: 5.0°C (41°F)
Dewpoint: 5.0°C (41°F) [RH = 100%]
Pressure (altimeter): 30.38 inches Hg (1029.0 mb)
Winds: from the WSW (250 degrees) at 14 MPH (12 knots; 6.2 m/s)
Visibility: 0.56 miles (0.90 km)
Ceiling: indefinite ceiling with vertical visibility of 200 feet AGL
Clouds: obscured sky
Weather: FG  (fog)

METAR text: EKYT 142220Z AUTO 25013KT 0650 R08L/1400U R26R/1300U FG VV002 05/05 Q1030
Conditions at: EKYT (ALBORG , DK) observed 2220 UTC 14 February 2019
Temperature: 5.0°C (41°F)
Dewpoint: 5.0°C (41°F) [RH = 100%]
Pressure (altimeter): 30.41 inches Hg (1030.0 mb)
Winds: from the WSW (250 degrees) at 15 MPH (13 knots; 6.7 m/s)
Visibility: 0.40 miles (0.64 km)
Ceiling: indefinite ceiling with vertical visibility of 200 feet AGL
Clouds: obscured sky
Weather: FG  (fog)

METAR text: EKYT 142208Z AUTO 24014KT 0550 R08L/1000U R26R/1200D FG VV002 05/05 Q1029
Conditions at: EKYT (ALBORG , DK) observed 2208 UTC 14 February 2019
Temperature: 5.0°C (41°F)
Dewpoint: 5.0°C (41°F) [RH = 100%]
Pressure (altimeter): 30.38 inches Hg (1029.0 mb)
Winds: from the WSW (240 degrees) at 16 MPH (14 knots; 7.2 m/s)
Visibility: 0.34 miles (0.55 km)
Ceiling: indefinite ceiling with vertical visibility of 200 feet AGL
Clouds: obscured sky
Weather: FG  (fog)

METAR text: EKYT 142155Z AUTO 25015KT 0750 R08L/1200D R26R/P1500D FG OVC001/// 05/05 Q1029
Conditions at: EKYT (ALBORG , DK) observed 2155 UTC 14 February 2019
Temperature: 5.0°C (41°F)
Dewpoint: 5.0°C (41°F) [RH = 100%]
Pressure (altimeter): 30.38 inches Hg (1029.0 mb)
Winds: from the WSW (250 degrees) at 17 MPH (15 knots; 7.7 m/s)
Visibility: 0.47 miles (0.76 km)
Ceiling: 100 feet AGL
Clouds: overcast cloud deck at 100 feet AGL
Weather: FG  (fog)

METAR text: EKYT 142150Z AUTO 25014KT 0900 R08L/1400D R26R/P1500D FG BKN001/// OVC003/// 05/05 Q1029
Conditions at: EKYT (ALBORG , DK) observed 2150 UTC 14 February 2019
Temperature: 5.0°C (41°F)
Dewpoint: 5.0°C (41°F) [RH = 100%]
Pressure (altimeter): 30.38 inches Hg (1029.0 mb)
Winds: from the WSW (250 degrees) at 16 MPH (14 knots; 7.2 m/s)
Visibility: 0.56 miles (0.90 km)
Ceiling: 100 feet AGL
Clouds: broken clouds at 100 feet AGL
overcast cloud deck at 300 feet AGL
Weather: FG  (fog)

METAR text: EKYT 142141Z AUTO 24013KT 1400 R08L/P1500D R26R/P1500N BR BKN001/// BKN003/// 05/05 Q1029
Conditions at: EKYT (ALBORG , DK) observed 2141 UTC 14 February 2019
Temperature: 5.0°C (41°F)
Dewpoint: 5.0°C (41°F) [RH = 100%]
Pressure (altimeter): 30.38 inches Hg (1029.0 mb)
Winds: from the WSW (240 degrees) at 15 MPH (13 knots; 6.7 m/s)
Visibility: 0.87 miles (1.40 km)
Ceiling: 100 feet AGL
Clouds: broken clouds at 100 feet AGL
broken clouds at 300 feet AGL
Weather: BR  (mist)

METAR text: EKYT 142138Z AUTO 25012KT 1600 BR BKN001/// BKN003/// 05/05 Q1029
Conditions at: EKYT (ALBORG , DK) observed 2138 UTC 14 February 2019
Temperature: 5.0°C (41°F)
Dewpoint: 5.0°C (41°F) [RH = 100%]
Pressure (altimeter): 30.38 inches Hg (1029.0 mb)
Winds: from the WSW (250 degrees) at 14 MPH (12 knots; 6.2 m/s)
Visibility: 0.99 miles (1.59 km)
Ceiling: 100 feet AGL
Clouds: broken clouds at 100 feet AGL
broken clouds at 300 feet AGL
Weather: BR  (mist)

METAR text: EKYT 142136Z AUTO 25012KT 1800 BR SCT001/// BKN003/// 05/05 Q1029
Conditions at: EKYT (ALBORG , DK) observed 2136 UTC 14 February 2019
Temperature: 5.0°C (41°F)
Dewpoint: 5.0°C (41°F) [RH = 100%]
Pressure (altimeter): 30.38 inches Hg (1029.0 mb)
Winds: from the WSW (250 degrees) at 14 MPH (12 knots; 6.2 m/s)
Visibility: 1.12 miles (1.80 km)
Ceiling: 300 feet AGL
Clouds: scattered clouds at 100 feet AGL
broken clouds at 300 feet AGL
Weather: BR  (mist)

METAR text: EKYT 142135Z AUTO 25012KT 1900 BR SCT001/// BKN003/// 05/05 Q1029
Conditions at: EKYT (ALBORG , DK) observed 2135 UTC 14 February 2019
Temperature: 5.0°C (41°F)
Dewpoint: 5.0°C (41°F) [RH = 100%]
Pressure (altimeter): 30.38 inches Hg (1029.0 mb)
Winds: from the WSW (250 degrees) at 14 MPH (12 knots; 6.2 m/s)
Visibility: 1.18 miles (1.90 km)
Ceiling: 300 feet AGL
Clouds: scattered clouds at 100 feet AGL
broken clouds at 300 feet AGL
Weather: BR  (mist)

METAR text: EKYT 142128Z AUTO 25011KT 2300 BR BKN002/// OVC005/// 05/05 Q1029
Conditions at: EKYT (ALBORG , DK) observed 2128 UTC 14 February 2019
Temperature: 5.0°C (41°F)
Dewpoint: 5.0°C (41°F) [RH = 100%]
Pressure (altimeter): 30.38 inches Hg (1029.0 mb)
Winds: from the WSW (250 degrees) at 13 MPH (11 knots; 5.7 m/s)
Visibility: 1.43 miles (2.30 km)
Ceiling: 200 feet AGL
Clouds: broken clouds at 200 feet AGL
overcast cloud deck at 500 feet AGL
Weather: BR  (mist)

METAR text: EKYT 142127Z AUTO 25011KT 2300 BR BKN002/// OVC005/// 05/05 Q1029
Conditions at: EKYT (ALBORG , DK) observed 2127 UTC 14 February 2019
Temperature: 5.0°C (41°F)
Dewpoint: 5.0°C (41°F) [RH = 100%]
Pressure (altimeter): 30.38 inches Hg (1029.0 mb)
Winds: from the WSW (250 degrees) at 13 MPH (11 knots; 5.7 m/s)
Visibility: 1.43 miles (2.30 km)
Ceiling: 200 feet AGL
Clouds: broken clouds at 200 feet AGL
overcast cloud deck at 500 feet AGL
Weather: BR  (mist)

METAR text: EKYT 142123Z AUTO 25011KT 2500 BR SCT002/// BKN004/// OVC006/// 05/05 Q1029
Conditions at: EKYT (ALBORG , DK) observed 2123 UTC 14 February 2019
Temperature: 5.0°C (41°F)
Dewpoint: 5.0°C (41°F) [RH = 100%]
Pressure (altimeter): 30.38 inches Hg (1029.0 mb)
Winds: from the WSW (250 degrees) at 13 MPH (11 knots; 5.7 m/s)
Visibility: 1.55 miles (2.49 km)
Ceiling: 400 feet AGL
Clouds: scattered clouds at 200 feet AGL
broken clouds at 400 feet AGL
overcast cloud deck at 600 feet AGL
Weather: BR  (mist)

METAR text: EKYT 142122Z AUTO 25011KT 2500 BR SCT002/// BKN004/// OVC006/// 05/05 Q1029
Conditions at: EKYT (ALBORG , DK) observed 2122 UTC 14 February 2019
Temperature: 5.0°C (41°F)
Dewpoint: 5.0°C (41°F) [RH = 100%]
Pressure (altimeter): 30.38 inches Hg (1029.0 mb)
Winds: from the WSW (250 degrees) at 13 MPH (11 knots; 5.7 m/s)
Visibility: 1.55 miles (2.49 km)
Ceiling: 400 feet AGL
Clouds: scattered clouds at 200 feet AGL
broken clouds at 400 feet AGL
overcast cloud deck at 600 feet AGL
Weather: BR  (mist)

METAR text: EKYT 142120Z AUTO 25011KT 2700 BR SCT002/// OVC005/// 05/05 Q1029
Conditions at: EKYT (ALBORG , DK) observed 2120 UTC 14 February 2019
Temperature: 5.0°C (41°F)
Dewpoint: 5.0°C (41°F) [RH = 100%]
Pressure (altimeter): 30.38 inches Hg (1029.0 mb)
Winds: from the WSW (250 degrees) at 13 MPH (11 knots; 5.7 m/s)
Visibility: 1.68 miles (2.70 km)
Ceiling: 500 feet AGL
Clouds: scattered clouds at 200 feet AGL
overcast cloud deck at 500 feet AGL
Weather: BR  (mist)

METAR text: EKYT 142118Z AUTO 25012KT 2900 BR SCT002/// OVC005/// 05/05 Q1029
Conditions at: EKYT (ALBORG , DK) observed 2118 UTC 14 February 2019
Temperature: 5.0°C (41°F)
Dewpoint: 5.0°C (41°F) [RH = 100%]
Pressure (altimeter): 30.38 inches Hg (1029.0 mb)
Winds: from the WSW (250 degrees) at 14 MPH (12 knots; 6.2 m/s)
Visibility: 1.80 miles (2.90 km)
Ceiling: 500 feet AGL
Clouds: scattered clouds at 200 feet AGL
overcast cloud deck at 500 feet AGL
Weather: BR  (mist)

METAR text: EKYT 142117Z AUTO 24012KT 2900 BR SCT002/// OVC005/// 05/05 Q1029
Conditions at: EKYT (ALBORG , DK) observed 2117 UTC 14 February 2019
Temperature: 5.0°C (41°F)
Dewpoint: 5.0°C (41°F) [RH = 100%]
Pressure (altimeter): 30.38 inches Hg (1029.0 mb)
Winds: from the WSW (240 degrees) at 14 MPH (12 knots; 6.2 m/s)
Visibility: 1.80 miles (2.90 km)
Ceiling: 500 feet AGL
Clouds: scattered clouds at 200 feet AGL
overcast cloud deck at 500 feet AGL
Weather: BR  (mist)

METAR text: EKYT 142108Z AUTO 24011KT 3700 BR BKN004/// OVC006/// 05/05 Q1029
Conditions at: EKYT (ALBORG , DK) observed 2108 UTC 14 February 2019
Temperature: 5.0°C (41°F)
Dewpoint: 5.0°C (41°F) [RH = 100%]
Pressure (altimeter): 30.38 inches Hg (1029.0 mb)
Winds: from the WSW (240 degrees) at 13 MPH (11 knots; 5.7 m/s)
Visibility: 2.30 miles (3.70 km)
Ceiling: 400 feet AGL
Clouds: broken clouds at 400 feet AGL
overcast cloud deck at 600 feet AGL
Weather: BR  (mist)

METAR text: EKYT 142107Z AUTO 24012KT 3700 BR BKN004/// OVC006/// 05/05 Q1029
Conditions at: EKYT (ALBORG , DK) observed 2107 UTC 14 February 2019
Temperature: 5.0°C (41°F)
Dewpoint: 5.0°C (41°F) [RH = 100%]
Pressure (altimeter): 30.38 inches Hg (1029.0 mb)
Winds: from the WSW (240 degrees) at 14 MPH (12 knots; 6.2 m/s)
Visibility: 2.30 miles (3.70 km)
Ceiling: 400 feet AGL
Clouds: broken clouds at 400 feet AGL
overcast cloud deck at 600 feet AGL
Weather: BR  (mist)

METAR text: EKYT 142050Z AUTO 24010KT 3800 BR OVC005/// 05/05 Q1029
Conditions at: EKYT (ALBORG , DK) observed 2050 UTC 14 February 2019
Temperature: 5.0°C (41°F)
Dewpoint: 5.0°C (41°F) [RH = 100%]
Pressure (altimeter): 30.38 inches Hg (1029.0 mb)
Winds: from the WSW (240 degrees) at 12 MPH (10 knots; 5.1 m/s)
Visibility: 2.36 miles (3.80 km)
Ceiling: 500 feet AGL
Clouds: overcast cloud deck at 500 feet AGL
Weather: BR  (mist)

METAR text: EKYT 142023Z AUTO 25008KT 3500 BR BKN004/// OVC006/// 05/05 Q1029
Conditions at: EKYT (ALBORG , DK) observed 2023 UTC 14 February 2019
Temperature: 5.0°C (41°F)
Dewpoint: 5.0°C (41°F) [RH = 100%]
Pressure (altimeter): 30.38 inches Hg (1029.0 mb)
Winds: from the WSW (250 degrees) at 9 MPH (8 knots; 4.1 m/s)
Visibility: 2.17 miles (3.49 km)
Ceiling: 400 feet AGL
Clouds: broken clouds at 400 feet AGL
overcast cloud deck at 600 feet AGL
Weather: BR  (mist)

METAR text: EKYT 142022Z AUTO 25008KT 3500 BR BKN004/// OVC006/// 05/05 Q1029
Conditions at: EKYT (ALBORG , DK) observed 2022 UTC 14 February 2019
Temperature: 5.0°C (41°F)
Dewpoint: 5.0°C (41°F) [RH = 100%]
Pressure (altimeter): 30.38 inches Hg (1029.0 mb)
Winds: from the WSW (250 degrees) at 9 MPH (8 knots; 4.1 m/s)
Visibility: 2.17 miles (3.49 km)
Ceiling: 400 feet AGL
Clouds: broken clouds at 400 feet AGL
overcast cloud deck at 600 feet AGL
Weather: BR  (mist)

METAR text: EKYT 142020Z AUTO 25008KT 3500 BR FEW003/// OVC005/// 05/05 Q1029
Conditions at: EKYT (ALBORG , DK) observed 2020 UTC 14 February 2019
Temperature: 5.0°C (41°F)
Dewpoint: 5.0°C (41°F) [RH = 100%]
Pressure (altimeter): 30.38 inches Hg (1029.0 mb)
Winds: from the WSW (250 degrees) at 9 MPH (8 knots; 4.1 m/s)
Visibility: 2.17 miles (3.49 km)
Ceiling: 500 feet AGL
Clouds: few clouds at 300 feet AGL
overcast cloud deck at 500 feet AGL
Weather: BR  (mist)

METAR text: EKYT 142003Z AUTO 24008KT 3300 BR BKN003/// OVC005/// 05/05 Q1029
Conditions at: EKYT (ALBORG , DK) observed 2003 UTC 14 February 2019
Temperature: 5.0°C (41°F)
Dewpoint: 5.0°C (41°F) [RH = 100%]
Pressure (altimeter): 30.38 inches Hg (1029.0 mb)
Winds: from the WSW (240 degrees) at 9 MPH (8 knots; 4.1 m/s)
Visibility: 2.05 miles (3.30 km)
Ceiling: 300 feet AGL
Clouds: broken clouds at 300 feet AGL
overcast cloud deck at 500 feet AGL
Weather: BR  (mist)

METAR text: EKYT 142002Z AUTO 24008KT 3300 BR BKN003/// OVC005/// 05/05 Q1029
Conditions at: EKYT (ALBORG , DK) observed 2002 UTC 14 February 2019
Temperature: 5.0°C (41°F)
Dewpoint: 5.0°C (41°F) [RH = 100%]
Pressure (altimeter): 30.38 inches Hg (1029.0 mb)
Winds: from the WSW (240 degrees) at 9 MPH (8 knots; 4.1 m/s)
Visibility: 2.05 miles (3.30 km)
Ceiling: 300 feet AGL
Clouds: broken clouds at 300 feet AGL
overcast cloud deck at 500 feet AGL
Weather: BR  (mist)

METAR text: EKYT 141950Z AUTO 25008KT 3000 BR BKN002/// OVC004/// 05/05 Q1029
Conditions at: EKYT (ALBORG , DK) observed 1950 UTC 14 February 2019
Temperature: 5.0°C (41°F)
Dewpoint: 5.0°C (41°F) [RH = 100%]
Pressure (altimeter): 30.38 inches Hg (1029.0 mb)
Winds: from the WSW (250 degrees) at 9 MPH (8 knots; 4.1 m/s)
Visibility: 1.86 miles (2.99 km)
Ceiling: 200 feet AGL
Clouds: broken clouds at 200 feet AGL
overcast cloud deck at 400 feet AGL
Weather: BR  (mist)

METAR text: EKYT 141926Z AUTO 24011KT 2900 BR BKN003/// OVC005/// 05/05 Q1029
Conditions at: EKYT (ALBORG , DK) observed 1926 UTC 14 February 2019
Temperature: 5.0°C (41°F)
Dewpoint: 5.0°C (41°F) [RH = 100%]
Pressure (altimeter): 30.38 inches Hg (1029.0 mb)
Winds: from the WSW (240 degrees) at 13 MPH (11 knots; 5.7 m/s)
Visibility: 1.80 miles (2.90 km)
Ceiling: 300 feet AGL
Clouds: broken clouds at 300 feet AGL
overcast cloud deck at 500 feet AGL
Weather: BR  (mist)

METAR text: EKYT 141925Z AUTO 24011KT 2900 BR BKN003/// OVC005/// 05/05 Q1029
Conditions at: EKYT (ALBORG , DK) observed 1925 UTC 14 February 2019
Temperature: 5.0°C (41°F)
Dewpoint: 5.0°C (41°F) [RH = 100%]
Pressure (altimeter): 30.38 inches Hg (1029.0 mb)
Winds: from the WSW (240 degrees) at 13 MPH (11 knots; 5.7 m/s)
Visibility: 1.80 miles (2.90 km)
Ceiling: 300 feet AGL
Clouds: broken clouds at 300 feet AGL
overcast cloud deck at 500 feet AGL
Weather: BR  (mist)

METAR text: EKYT 141920Z AUTO 24011KT 3200 BR BKN003/// OVC005/// 05/05 Q1029
Conditions at: EKYT (ALBORG , DK) observed 1920 UTC 14 February 2019
Temperature: 5.0°C (41°F)
Dewpoint: 5.0°C (41°F) [RH = 100%]
Pressure (altimeter): 30.38 inches Hg (1029.0 mb)
Winds: from the WSW (240 degrees) at 13 MPH (11 knots; 5.7 m/s)
Visibility: 1.99 miles (3.20 km)
Ceiling: 300 feet AGL
Clouds: broken clouds at 300 feet AGL
overcast cloud deck at 500 feet AGL
Weather: BR  (mist)

METAR text: EKYT 141918Z AUTO 24011KT 3300 BR BKN003/// OVC005/// 05/05 Q1029
Conditions at: EKYT (ALBORG , DK) observed 1918 UTC 14 February 2019
Temperature: 5.0°C (41°F)
Dewpoint: 5.0°C (41°F) [RH = 100%]
Pressure (altimeter): 30.38 inches Hg (1029.0 mb)
Winds: from the WSW (240 degrees) at 13 MPH (11 knots; 5.7 m/s)
Visibility: 2.05 miles (3.30 km)
Ceiling: 300 feet AGL
Clouds: broken clouds at 300 feet AGL
overcast cloud deck at 500 feet AGL
Weather: BR  (mist)

METAR text: EKYT 141903Z AUTO 24012KT 3700 BR BKN004/// BKN006/// OVC020/// 05/05 Q1029
Conditions at: EKYT (ALBORG , DK) observed 1903 UTC 14 February 2019
Temperature: 5.0°C (41°F)
Dewpoint: 5.0°C (41°F) [RH = 100%]
Pressure (altimeter): 30.38 inches Hg (1029.0 mb)
Winds: from the WSW (240 degrees) at 14 MPH (12 knots; 6.2 m/s)
Visibility: 2.30 miles (3.70 km)
Ceiling: 400 feet AGL
Clouds: broken clouds at 400 feet AGL
broken clouds at 600 feet AGL
overcast cloud deck at 2000 feet AGL
Weather: BR  (mist)

METAR text: EKYT 141902Z AUTO 24012KT 3800 BR BKN004/// BKN006/// OVC020/// 05/05 Q1029
Conditions at: EKYT (ALBORG , DK) observed 1902 UTC 14 February 2019
Temperature: 5.0°C (41°F)
Dewpoint: 5.0°C (41°F) [RH = 100%]
Pressure (altimeter): 30.38 inches Hg (1029.0 mb)
Winds: from the WSW (240 degrees) at 14 MPH (12 knots; 6.2 m/s)
Visibility: 2.36 miles (3.80 km)
Ceiling: 400 feet AGL
Clouds: broken clouds at 400 feet AGL
broken clouds at 600 feet AGL
overcast cloud deck at 2000 feet AGL
Weather: BR  (mist)

METAR text: EKYT 141850Z AUTO 24011KT 3800 BR BKN005/// OVC021/// 05/05 Q1029
Conditions at: EKYT (ALBORG , DK) observed 1850 UTC 14 February 2019
Temperature: 5.0°C (41°F)
Dewpoint: 5.0°C (41°F) [RH = 100%]
Pressure (altimeter): 30.38 inches Hg (1029.0 mb)
Winds: from the WSW (240 degrees) at 13 MPH (11 knots; 5.7 m/s)
Visibility: 2.36 miles (3.80 km)
Ceiling: 500 feet AGL
Clouds: broken clouds at 500 feet AGL
overcast cloud deck at 2100 feet AGL
Weather: BR  (mist)

METAR text: EKYT 141820Z AUTO 25013KT 3600 BR SCT005/// BKN007/// OVC023/// 05/05 Q1029
Conditions at: EKYT (ALBORG , DK) observed 1820 UTC 14 February 2019
Temperature: 5.0°C (41°F)
Dewpoint: 5.0°C (41°F) [RH = 100%]
Pressure (altimeter): 30.38 inches Hg (1029.0 mb)
Winds: from the WSW (250 degrees) at 15 MPH (13 knots; 6.7 m/s)
Visibility: 2.24 miles (3.60 km)
Ceiling: 700 feet AGL
Clouds: scattered clouds at 500 feet AGL
broken clouds at 700 feet AGL
overcast cloud deck at 2300 feet AGL
Weather: BR  (mist)

METAR text: EKYT 141818Z AUTO 25013KT 3600 BR SCT005/// BKN007/// OVC023/// 05/05 Q1029
Conditions at: EKYT (ALBORG , DK) observed 1818 UTC 14 February 2019
Temperature: 5.0°C (41°F)
Dewpoint: 5.0°C (41°F) [RH = 100%]
Pressure (altimeter): 30.38 inches Hg (1029.0 mb)
Winds: from the WSW (250 degrees) at 15 MPH (13 knots; 6.7 m/s)
Visibility: 2.24 miles (3.60 km)
Ceiling: 700 feet AGL
Clouds: scattered clouds at 500 feet AGL
broken clouds at 700 feet AGL
overcast cloud deck at 2300 feet AGL
Weather: BR  (mist)

METAR text: EKYT 141817Z AUTO 25013KT 3500 BR SCT005/// BKN007/// OVC023/// 05/05 Q1029
Conditions at: EKYT (ALBORG , DK) observed 1817 UTC 14 February 2019
Temperature: 5.0°C (41°F)
Dewpoint: 5.0°C (41°F) [RH = 100%]
Pressure (altimeter): 30.38 inches Hg (1029.0 mb)
Winds: from the WSW (250 degrees) at 15 MPH (13 knots; 6.7 m/s)
Visibility: 2.17 miles (3.49 km)
Ceiling: 700 feet AGL
Clouds: scattered clouds at 500 feet AGL
broken clouds at 700 feet AGL
overcast cloud deck at 2300 feet AGL
Weather: BR  (mist)

METAR text: EKYT 141750Z AUTO 24011KT 4400 BR FEW005/// SCT007/// BKN025/// 05/05 Q1029
Conditions at: EKYT (ALBORG , DK) observed 1750 UTC 14 February 2019
Temperature: 5.0°C (41°F)
Dewpoint: 5.0°C (41°F) [RH = 100%]
Pressure (altimeter): 30.38 inches Hg (1029.0 mb)
Winds: from the WSW (240 degrees) at 13 MPH (11 knots; 5.7 m/s)
Visibility: 2.73 miles (4.39 km)
Ceiling: 2500 feet AGL
Clouds: few clouds at 500 feet AGL
scattered clouds at 700 feet AGL
broken clouds at 2500 feet AGL
Weather: BR  (mist)

Forecast for: EKYT (ALBORG , DK)
Text: TAF EKYT 160222Z 1603/1624 23012KT 9999 SCT200
Forecast period: 0300 UTC 16 February 2019 to 0000 UTC 17 February 2019
Forecast type: FROM: standard forecast or significant change
Winds: from the SW (230 degrees) at 14 MPH (12 knots; 6.2 m/s)
Visibility: 6 or more miles 10+ km)
Ceiling: at least 12,000 feet AGL
Clouds: scattered clouds at 20000 feet AGL
Weather: no significant weather forecast for this period
Text: PROB40 1609/1614 23015G28KT
Forecast period: 0900 to 1400 UTC 16 February 2019
Forecast type: PROBABLE: 40 percent likelihood of the following during this time
Winds: from the SW (230 degrees) at 17 MPH (15 knots; 7.7 m/s)
gusting to 32 MPH (28 knots; 14.4 m/s)
Visibility: missing
Ceiling: unknown
Clouds: missing
Weather: no significant weather forecast for this period
Text: TEMPO 1612/1618 5000 BR BKN010
Forecast period: 1200 to 1800 UTC 16 February 2019
Forecast type: TEMPORARY: The following changes expected for less than half the time period
Visibility: 3 miles (5 km)
Ceiling: 1000 feet AGL
Clouds: broken clouds at 1000 feet AGL
Weather: BR  (mist)
Text: TEMPO 1618/1624 4000 BR BKN005
Forecast period: 1800 UTC 16 February 2019 to 0000 UTC 17 February 2019
Forecast type: TEMPORARY: The following changes expected for less than half the time period
Visibility: 2.49 miles (4.01 km)
Ceiling: 500 feet AGL
Clouds: broken clouds at 500 feet AGL
Weather: BR  (mist)